createdAt,value
2018-12-26T00:01:59.434Z,3.80
2018-12-26T00:04:29.063Z,3.83
2018-12-26T00:06:58.817Z,3.20
2018-12-26T00:09:28.393Z,4.10
2018-12-26T00:11:57.966Z,4.90
2018-12-26T00:14:27.537Z,3.00
2018-12-26T00:16:57.192Z,4.50
2018-12-26T00:19:26.804Z,4.07
2018-12-26T00:21:56.595Z,3.93
2018-12-26T00:24:26.188Z,4.37
2018-12-26T00:26:55.840Z,3.37
2018-12-26T00:29:25.442Z,3.43
2018-12-26T00:31:54.807Z,3.90
2018-12-26T00:34:24.307Z,4.90
2018-12-26T00:36:53.886Z,8.90
2018-12-26T00:39:23.295Z,7.47
2018-12-26T00:41:52.742Z,4.47
2018-12-26T00:44:22.254Z,4.70
2018-12-26T00:46:51.870Z,4.20
2018-12-26T00:49:21.309Z,4.23
2018-12-26T00:51:50.796Z,3.23
2018-12-26T00:54:20.244Z,3.53
2018-12-26T00:56:49.772Z,4.10
2018-12-26T00:59:19.283Z,4.70
2018-12-26T01:01:48.915Z,5.33
2018-12-26T01:04:18.564Z,4.03
2018-12-26T01:06:48.257Z,3.70
2018-12-26T01:09:17.795Z,4.27
2018-12-26T01:11:47.185Z,4.73
2018-12-26T01:14:16.739Z,3.87
2018-12-26T01:16:46.223Z,4.03
2018-12-26T01:19:15.626Z,4.40
2018-12-26T01:21:45.082Z,4.80
2018-12-26T01:24:14.748Z,4.03
2018-12-26T01:26:44.170Z,3.57
2018-12-26T01:29:13.576Z,4.43
2018-12-26T01:31:43.197Z,4.43
2018-12-26T01:34:12.605Z,3.50
2018-12-26T01:36:42.022Z,4.10
2018-12-26T01:39:11.464Z,4.20
2018-12-26T01:41:40.937Z,5.07
2018-12-26T01:44:10.328Z,4.30
2018-12-26T01:46:39.886Z,3.80
2018-12-26T01:49:09.519Z,4.10
2018-12-26T01:51:39.103Z,4.00
2018-12-26T01:54:08.738Z,3.87
2018-12-26T01:56:38.328Z,4.40
2018-12-26T01:59:07.878Z,3.60
2018-12-26T02:01:37.497Z,4.33
2018-12-26T02:04:07.564Z,4.07
2018-12-26T02:06:37.117Z,3.60
2018-12-26T02:09:08.630Z,3.90
2018-12-26T02:11:38.298Z,4.97
2018-12-26T02:14:07.847Z,4.37
2018-12-26T02:16:37.410Z,4.50
2018-12-26T02:19:07.074Z,3.77
2018-12-26T02:21:36.685Z,4.40
2018-12-26T02:24:06.241Z,3.70
2018-12-26T02:26:36.550Z,3.70
2018-12-26T02:29:06.599Z,4.17
2018-12-26T02:31:36.338Z,4.10
2018-12-26T02:34:06.034Z,4.70
2018-12-26T02:36:35.664Z,5.27
2018-12-26T02:39:06.756Z,4.33
2018-12-26T02:41:36.369Z,4.20
2018-12-26T02:44:06.019Z,4.53
2018-12-26T02:46:35.666Z,4.23
2018-12-26T02:49:05.261Z,4.60
2018-12-26T02:51:34.874Z,4.87
2018-12-26T02:54:04.475Z,4.07
2018-12-26T02:56:34.148Z,3.83
2018-12-26T02:59:03.848Z,3.50
2018-12-26T03:01:33.447Z,3.80
2018-12-26T03:04:03.056Z,4.27
2018-12-26T03:06:32.730Z,5.00
2018-12-26T03:09:02.303Z,4.80
2018-12-26T03:11:31.704Z,4.80
2018-12-26T03:14:03.243Z,5.00
2018-12-26T03:16:32.629Z,4.60
2018-12-26T03:19:02.099Z,4.70
2018-12-26T03:21:31.624Z,4.53
2018-12-26T03:24:01.154Z,4.50
2018-12-26T03:26:30.676Z,4.60
2018-12-26T03:29:00.149Z,5.53
2018-12-26T03:31:29.632Z,5.30
2018-12-26T03:33:59.086Z,5.27
2018-12-26T03:36:28.597Z,4.40
2018-12-26T03:38:58.110Z,4.40
2018-12-26T03:41:27.512Z,6.60
2018-12-26T03:43:56.962Z,5.23
2018-12-26T03:46:26.442Z,5.87
2018-12-26T03:48:55.948Z,5.70
2018-12-26T03:51:25.346Z,5.40
2018-12-26T03:53:54.855Z,6.53
2018-12-26T03:56:24.320Z,5.50
2018-12-26T03:58:53.748Z,4.87
2018-12-26T04:01:23.278Z,5.77
2018-12-26T04:03:52.842Z,6.20
2018-12-26T04:06:22.258Z,8.20
2018-12-26T04:08:51.648Z,6.07
2018-12-26T04:11:21.127Z,5.67
2018-12-26T04:13:50.550Z,6.00
2018-12-26T04:16:19.932Z,6.03
2018-12-26T04:18:49.437Z,5.20
2018-12-26T04:21:18.881Z,5.90
2018-12-26T04:23:48.268Z,7.20
2018-12-26T04:26:17.649Z,7.20
2018-12-26T04:28:47.106Z,7.97
2018-12-26T04:31:16.509Z,6.77
2018-12-26T04:33:45.973Z,5.80
2018-12-26T04:36:15.351Z,6.07
2018-12-26T04:38:44.729Z,6.10
2018-12-26T04:41:14.259Z,5.20
2018-12-26T04:43:43.712Z,5.90
2018-12-26T04:46:13.084Z,5.20
2018-12-26T04:48:42.479Z,5.77
2018-12-26T04:51:11.956Z,6.23
2018-12-26T04:53:41.437Z,6.47
2018-12-26T04:56:10.812Z,6.60
2018-12-26T04:58:40.255Z,7.70
2018-12-26T05:01:09.714Z,8.10
2018-12-26T05:03:39.142Z,9.80
2018-12-26T05:06:08.569Z,9.30
2018-12-26T05:08:38.056Z,7.80
2018-12-26T05:11:07.502Z,6.07
2018-12-26T05:13:36.997Z,6.10
2018-12-26T05:16:06.401Z,7.57
2018-12-26T05:18:35.828Z,7.43
2018-12-26T05:21:05.263Z,5.70
2018-12-26T05:23:34.856Z,6.00
2018-12-26T05:26:04.366Z,7.20
2018-12-26T05:28:33.811Z,7.43
2018-12-26T05:31:03.330Z,6.60
2018-12-26T05:33:32.769Z,7.03
2018-12-26T05:36:02.486Z,6.27
2018-12-26T05:38:31.931Z,5.40
2018-12-26T05:41:01.353Z,5.33
2018-12-26T05:43:30.834Z,6.10
2018-12-26T05:46:00.320Z,6.30
2018-12-26T05:48:29.871Z,5.90
2018-12-26T05:50:59.265Z,6.87
2018-12-26T05:53:28.748Z,6.37
2018-12-26T05:55:58.273Z,5.53
2018-12-26T05:58:27.769Z,6.90
2018-12-26T06:00:57.192Z,6.87
2018-12-26T06:03:26.673Z,6.73
2018-12-26T06:05:56.137Z,7.57
2018-12-26T06:08:25.553Z,7.30
2018-12-26T06:10:55.000Z,6.70
2018-12-26T06:13:24.413Z,5.87
2018-12-26T06:15:53.952Z,6.30
2018-12-26T06:18:23.476Z,6.60
2018-12-26T06:20:52.943Z,9.87
2018-12-26T06:23:22.345Z,8.53
2018-12-26T06:25:51.834Z,10.73
2018-12-26T06:28:21.278Z,8.47
2018-12-26T06:30:50.693Z,8.37
2018-12-26T06:33:20.188Z,7.80
2018-12-26T06:35:49.771Z,7.63
2018-12-26T06:38:19.237Z,10.13
2018-12-26T06:40:48.689Z,7.70
2018-12-26T06:43:18.172Z,5.67
2018-12-26T06:45:47.708Z,6.17
2018-12-26T06:48:17.156Z,6.70
2018-12-26T06:50:46.687Z,8.03
2018-12-26T06:53:16.064Z,8.57
2018-12-26T06:55:45.497Z,9.13
2018-12-26T06:58:14.980Z,10.87
2018-12-26T07:00:44.476Z,9.43
2018-12-26T07:03:13.916Z,8.07
2018-12-26T07:05:43.365Z,9.60
2018-12-26T07:08:12.879Z,7.50
2018-12-26T07:10:42.361Z,8.20
2018-12-26T07:13:11.835Z,7.80
2018-12-26T07:15:41.255Z,8.73
2018-12-26T07:18:10.671Z,7.87
2018-12-26T07:20:40.160Z,8.50
2018-12-26T07:23:09.626Z,8.70
2018-12-26T07:25:39.044Z,8.00
2018-12-26T07:28:09.272Z,7.70
2018-12-26T07:30:39.140Z,8.00
2018-12-26T07:33:08.553Z,8.50
2018-12-26T07:35:38.027Z,7.20
2018-12-26T07:38:07.476Z,7.03
2018-12-26T07:40:36.926Z,6.47
2018-12-26T07:43:06.355Z,8.70
2018-12-26T07:45:35.814Z,8.53
2018-12-26T07:48:05.342Z,7.70
2018-12-26T07:50:34.823Z,7.77
2018-12-26T07:53:04.517Z,9.03
2018-12-26T07:55:35.088Z,13.77
2018-12-26T07:58:04.479Z,12.47
2018-12-26T08:00:33.914Z,12.33
2018-12-26T08:03:03.405Z,16.63
2018-12-26T08:05:32.910Z,14.73
2018-12-26T08:08:02.321Z,11.27
2018-12-26T08:10:31.910Z,16.50
2018-12-26T08:13:01.329Z,19.73
2018-12-26T08:15:30.780Z,20.70
2018-12-26T08:18:00.269Z,16.00
2018-12-26T08:20:29.904Z,18.37
2018-12-26T08:22:59.375Z,20.37
2018-12-26T08:25:28.799Z,14.40
2018-12-26T08:27:58.311Z,15.20
2018-12-26T08:30:27.850Z,17.90
2018-12-26T08:32:57.516Z,16.40
2018-12-26T08:35:26.987Z,15.47
2018-12-26T08:37:56.395Z,11.80
2018-12-26T08:40:25.817Z,11.33
2018-12-26T08:42:55.295Z,9.50
2018-12-26T08:45:24.761Z,8.77
2018-12-26T08:47:54.187Z,11.37
2018-12-26T08:50:23.856Z,15.23
2018-12-26T08:52:53.311Z,11.27
2018-12-26T08:55:22.737Z,10.30
2018-12-26T08:57:52.225Z,10.83
2018-12-26T09:00:21.774Z,11.00
2018-12-26T09:02:51.173Z,10.33
2018-12-26T09:05:20.672Z,7.87
2018-12-26T09:07:50.215Z,7.23
2018-12-26T09:10:19.621Z,7.20
2018-12-26T09:12:49.207Z,8.80
2018-12-26T09:15:18.698Z,9.00
2018-12-26T09:17:48.159Z,8.83
2018-12-26T09:20:17.580Z,7.47
2018-12-26T09:22:47.201Z,8.90
2018-12-26T09:25:16.793Z,5.53
2018-12-26T09:27:46.225Z,9.07
2018-12-26T09:30:15.729Z,8.57
2018-12-26T09:32:45.378Z,10.27
2018-12-26T09:35:14.755Z,8.23
2018-12-26T09:37:44.274Z,8.83
2018-12-26T09:40:13.716Z,6.67
2018-12-26T09:42:43.112Z,6.90
2018-12-26T09:45:12.647Z,6.67
2018-12-26T09:47:42.149Z,8.50
2018-12-26T09:50:11.667Z,8.20
2018-12-26T09:52:41.157Z,9.87
2018-12-26T09:55:10.644Z,12.20
2018-12-26T09:57:40.059Z,9.80
2018-12-26T10:00:10.118Z,9.23
2018-12-26T10:02:39.590Z,9.77
2018-12-26T10:05:09.551Z,20.70
2018-12-26T10:07:39.004Z,7.37
2018-12-26T10:10:08.605Z,7.13
2018-12-26T10:12:38.026Z,8.33
2018-12-26T10:15:08.514Z,6.60
2018-12-26T10:17:37.996Z,7.43
2018-12-26T10:20:07.543Z,7.90
2018-12-26T10:22:37.059Z,9.20
2018-12-26T10:25:07.049Z,7.90
2018-12-26T10:27:36.564Z,5.17
2018-12-26T10:30:06.809Z,6.30
2018-12-26T10:32:36.313Z,6.30
2018-12-26T10:35:06.138Z,5.43
2018-12-26T10:37:35.682Z,6.23
2018-12-26T10:40:05.467Z,6.27
2018-12-26T10:42:34.960Z,5.90
2018-12-26T10:45:04.427Z,6.87
2018-12-26T10:47:33.840Z,6.80
2018-12-26T10:50:03.315Z,8.07
2018-12-26T10:52:32.825Z,7.80
2018-12-26T10:55:02.235Z,8.80
2018-12-26T10:57:31.733Z,7.40
2018-12-26T11:00:01.242Z,8.63
2018-12-26T11:02:30.698Z,9.77
2018-12-26T11:05:00.155Z,8.07
2018-12-26T11:07:29.607Z,11.93
2018-12-26T11:09:59.116Z,12.17
2018-12-26T11:12:28.608Z,9.00
2018-12-26T11:14:58.064Z,10.20
2018-12-26T11:17:27.540Z,11.27
2018-12-26T11:19:56.951Z,9.20
2018-12-26T11:22:26.458Z,9.67
2018-12-26T11:24:56.045Z,9.27
2018-12-26T11:27:25.628Z,10.40
2018-12-26T11:29:55.157Z,10.40
2018-12-26T11:32:24.768Z,13.00
2018-12-26T11:34:54.199Z,9.00
2018-12-26T11:37:23.852Z,11.23
2018-12-26T11:39:53.426Z,11.00
2018-12-26T11:42:22.930Z,20.40
2018-12-26T11:44:52.384Z,11.67
2018-12-26T11:47:21.875Z,12.60
2018-12-26T11:49:51.299Z,8.67
2018-12-26T11:52:20.879Z,8.67
2018-12-26T11:54:50.517Z,10.20
2018-12-26T11:57:20.051Z,13.60
2018-12-26T11:59:49.499Z,10.93
2018-12-26T12:02:20.641Z,8.77
2018-12-26T12:04:50.143Z,8.10
2018-12-26T12:07:19.577Z,10.07
2018-12-26T12:09:49.136Z,12.27
2018-12-26T12:12:18.579Z,10.80
2018-12-26T12:14:49.279Z,10.60
2018-12-26T12:17:18.849Z,9.50
2018-12-26T12:19:48.365Z,11.30
2018-12-26T12:22:17.821Z,11.27
2018-12-26T12:24:47.251Z,9.10
2018-12-26T12:27:16.781Z,8.70
2018-12-26T12:29:46.201Z,11.07
2018-12-26T12:32:15.645Z,9.00
2018-12-26T12:34:45.141Z,9.60
2018-12-26T12:37:14.574Z,7.40
2018-12-26T12:39:43.966Z,8.53
2018-12-26T12:42:13.458Z,12.80
2018-12-26T12:44:43.010Z,7.93
2018-12-26T12:47:12.441Z,9.10
2018-12-26T12:49:41.933Z,9.60
2018-12-26T12:52:11.319Z,6.30
2018-12-26T12:54:40.868Z,7.50
2018-12-26T12:57:10.626Z,8.73
2018-12-26T12:59:44.722Z,10.90
2018-12-26T13:02:11.414Z,9.30
2018-12-26T13:04:41.002Z,9.60
2018-12-26T13:07:10.516Z,9.50
2018-12-26T13:09:40.082Z,11.43
2018-12-26T13:12:09.596Z,10.57
2018-12-26T13:14:39.118Z,15.73
2018-12-26T13:17:08.639Z,10.23
2018-12-26T13:19:38.059Z,11.27
2018-12-26T13:22:07.596Z,10.20
2018-12-26T13:24:37.072Z,10.60
2018-12-26T13:27:06.487Z,9.50
2018-12-26T13:29:35.950Z,8.87
2018-12-26T13:32:05.363Z,8.30
2018-12-26T13:34:34.884Z,6.30
2018-12-26T13:37:04.359Z,10.93
2018-12-26T13:39:33.968Z,8.13
2018-12-26T13:42:03.369Z,9.40
2018-12-26T13:44:32.828Z,10.50
2018-12-26T13:47:02.447Z,9.20
2018-12-26T13:49:31.874Z,7.73
2018-12-26T13:52:01.545Z,12.10
2018-12-26T13:54:31.064Z,12.90
2018-12-26T13:57:00.565Z,10.70
2018-12-26T13:59:30.030Z,10.63
2018-12-26T14:26:42.777Z,8.67
2018-12-26T14:29:12.278Z,9.43
2018-12-26T14:31:41.706Z,9.67
2018-12-26T14:34:11.140Z,10.97
2018-12-26T14:36:40.665Z,11.67
2018-12-26T14:39:10.137Z,10.63
2018-12-26T14:41:39.598Z,8.00
2018-12-26T14:44:09.144Z,10.50
2018-12-26T14:46:38.564Z,16.20
2018-12-26T14:49:08.043Z,12.43
2018-12-26T14:51:37.627Z,12.57
2018-12-26T14:54:07.240Z,17.77
2018-12-26T14:56:36.688Z,16.57
2018-12-26T14:59:06.196Z,12.03
2018-12-26T15:01:35.649Z,14.30
2018-12-26T15:04:05.138Z,11.03
2018-12-26T15:06:34.621Z,11.43
2018-12-26T15:09:04.508Z,11.27
2018-12-26T15:11:34.475Z,12.27
2018-12-26T15:14:03.890Z,11.83
2018-12-26T15:16:33.425Z,11.40
2018-12-26T15:19:17.480Z,10.80
2018-12-26T15:21:46.981Z,11.10
2018-12-26T15:24:16.555Z,10.43
2018-12-26T15:26:45.990Z,9.90
2018-12-26T15:29:15.394Z,10.03
2018-12-26T15:31:45.247Z,11.60
2018-12-26T15:34:14.736Z,9.97
2018-12-26T15:36:44.197Z,16.43
2018-12-26T15:39:13.652Z,11.13
2018-12-26T15:41:43.132Z,13.57
2018-12-26T15:44:12.516Z,15.03
2018-12-26T15:46:42.105Z,19.53
2018-12-26T15:49:11.721Z,15.00
2018-12-26T15:51:41.167Z,12.90
2018-12-26T15:54:10.635Z,15.00
2018-12-26T15:56:40.148Z,15.27
2018-12-26T15:59:09.583Z,11.07
2018-12-26T16:01:39.083Z,11.80
2018-12-26T16:04:09.498Z,9.27
2018-12-26T16:06:39.689Z,12.27
2018-12-26T16:09:09.097Z,12.50
2018-12-26T16:11:38.669Z,13.17
2018-12-26T16:14:08.144Z,12.27
2018-12-26T16:16:37.646Z,12.03
2018-12-26T16:19:07.109Z,12.47
2018-12-26T16:21:36.559Z,12.00
2018-12-26T16:24:06.123Z,16.13
2018-12-26T16:26:35.622Z,16.07
2018-12-26T16:29:05.140Z,14.83
2018-12-26T16:31:34.654Z,11.20
2018-12-26T16:34:04.136Z,19.70
2018-12-26T16:36:33.682Z,19.67
2018-12-26T16:39:03.841Z,16.23
2018-12-26T16:41:33.331Z,17.20
2018-12-26T16:44:02.824Z,19.00
2018-12-26T16:46:32.367Z,16.47
2018-12-26T16:49:01.848Z,15.40
2018-12-26T16:51:31.336Z,15.30
2018-12-26T16:54:00.852Z,16.60
2018-12-26T16:56:30.276Z,24.50
2018-12-26T16:58:59.721Z,25.00
2018-12-26T17:01:29.152Z,21.53
2018-12-26T17:03:58.531Z,22.60
2018-12-26T17:06:28.170Z,14.47
2018-12-26T17:08:57.668Z,13.47
2018-12-26T17:11:27.278Z,12.60
2018-12-26T17:13:56.716Z,13.27
2018-12-26T17:16:26.227Z,12.70
2018-12-26T17:18:55.687Z,15.87
2018-12-26T17:21:25.738Z,13.83
2018-12-26T17:23:55.238Z,12.53
2018-12-26T17:26:24.640Z,13.90
2018-12-26T17:28:54.118Z,18.00
2018-12-26T17:31:23.659Z,15.93
2018-12-26T17:33:53.172Z,16.13
2018-12-26T17:36:22.693Z,15.53
2018-12-26T17:38:52.160Z,22.97
2018-12-26T17:41:21.678Z,20.00
2018-12-26T17:43:51.235Z,22.47
2018-12-26T17:46:20.836Z,20.27
2018-12-26T17:48:50.341Z,17.60
2018-12-26T17:51:22.344Z,15.70
2018-12-26T17:54:12.541Z,14.33
2018-12-26T17:57:12.735Z,14.17
2018-12-26T18:00:44.593Z,11.93
2018-12-26T18:03:14.066Z,11.63
2018-12-26T18:05:43.594Z,10.40
2018-12-26T18:08:13.061Z,9.10
2018-12-26T18:10:42.495Z,8.80
2018-12-26T18:13:11.995Z,9.70
2018-12-26T18:15:41.534Z,10.37
2018-12-26T18:18:10.980Z,8.50
2018-12-26T18:20:40.577Z,9.93
2018-12-26T18:23:10.038Z,11.27
2018-12-26T18:25:39.473Z,11.03
2018-12-26T18:28:09.070Z,11.20
2018-12-26T18:30:38.616Z,11.30
2018-12-26T18:33:08.090Z,13.00
2018-12-26T18:35:37.672Z,13.73
2018-12-26T18:38:07.412Z,15.20
2018-12-26T18:40:36.892Z,14.43
2018-12-26T18:43:06.388Z,12.80
2018-12-26T18:45:36.135Z,12.80
2018-12-26T18:48:05.544Z,14.40
2018-12-26T18:50:35.520Z,12.40
2018-12-26T18:53:05.063Z,16.43
2018-12-26T18:55:34.604Z,16.20
2018-12-26T18:58:04.051Z,17.23
2018-12-26T19:00:33.555Z,14.97
2018-12-26T19:03:02.981Z,18.17
2018-12-26T19:05:32.831Z,18.17
2018-12-26T19:08:02.470Z,14.03
2018-12-26T19:10:31.943Z,16.53
2018-12-26T19:13:01.378Z,14.67
2018-12-26T19:15:30.850Z,13.27
2018-12-26T19:18:00.353Z,13.03
2018-12-26T19:20:29.872Z,12.17
2018-12-26T19:22:59.395Z,9.70
2018-12-26T19:25:28.945Z,10.67
2018-12-26T19:27:58.368Z,9.43
2018-12-26T19:30:27.822Z,10.30
2018-12-26T19:32:57.327Z,9.60
2018-12-26T19:35:26.804Z,11.37
2018-12-26T19:37:56.273Z,10.70
2018-12-26T19:40:25.803Z,11.20
2018-12-26T19:42:56.449Z,11.20
2018-12-26T19:45:26.195Z,12.30
2018-12-26T19:47:55.863Z,10.83
2018-12-26T19:50:25.329Z,7.97
2018-12-26T19:52:54.788Z,9.10
2018-12-26T19:55:24.261Z,9.40
2018-12-26T19:57:54.131Z,12.27
2018-12-26T20:00:23.786Z,10.83
2018-12-26T20:02:53.285Z,15.50
2018-12-26T20:05:23.185Z,8.53
2018-12-26T20:07:53.195Z,9.63
2018-12-26T20:10:22.578Z,9.23
2018-12-26T20:12:52.132Z,8.67
2018-12-26T20:15:21.669Z,9.30
2018-12-26T20:17:51.072Z,8.70
2018-12-26T20:20:20.660Z,7.27
2018-12-26T20:22:50.140Z,8.33
2018-12-26T20:25:19.571Z,7.80
2018-12-26T20:27:49.437Z,6.80
2018-12-26T20:30:18.930Z,7.97
2018-12-26T20:32:48.432Z,7.40
2018-12-26T20:35:17.799Z,8.03
2018-12-26T20:37:47.258Z,9.17
2018-12-26T20:40:16.688Z,6.27
2018-12-26T20:42:46.210Z,10.43
2018-12-26T20:45:15.747Z,7.90
2018-12-26T20:47:45.197Z,9.03
2018-12-26T20:50:14.631Z,10.53
2018-12-26T20:52:44.084Z,9.73
2018-12-26T20:55:13.559Z,9.90
2018-12-26T20:57:43.066Z,9.53
2018-12-26T21:00:12.588Z,7.57
2018-12-26T21:02:42.131Z,8.60
2018-12-26T21:05:11.759Z,8.13
2018-12-26T21:07:41.329Z,8.33
2018-12-26T21:10:10.840Z,7.90
2018-12-26T21:12:40.264Z,7.60
2018-12-26T21:15:09.752Z,7.60
2018-12-26T21:17:39.241Z,6.40
2018-12-26T21:20:09.556Z,6.23
2018-12-26T21:22:39.163Z,7.00
2018-12-26T21:25:09.582Z,6.43
2018-12-26T21:27:39.118Z,4.90
2018-12-26T21:30:11.893Z,6.07
2018-12-26T21:32:41.448Z,6.47
2018-12-26T21:35:11.127Z,5.87
2018-12-26T21:37:40.598Z,5.40
2018-12-26T21:40:10.470Z,5.70
2018-12-26T21:42:39.914Z,6.67
2018-12-26T21:45:11.071Z,5.53
2018-12-26T21:47:40.557Z,7.10
2018-12-26T21:50:11.691Z,8.10
2018-12-26T21:52:41.123Z,5.50
2018-12-26T21:55:10.516Z,7.13
2018-12-26T21:57:40.001Z,6.90
2018-12-26T22:00:10.063Z,5.73
2018-12-26T22:02:39.557Z,6.23
2018-12-26T22:05:09.122Z,5.20
2018-12-26T22:07:38.533Z,5.63
2018-12-26T22:10:08.015Z,6.10
2018-12-26T22:12:37.504Z,5.93
2018-12-26T22:15:07.235Z,6.10
2018-12-26T22:17:36.657Z,5.67
2018-12-26T22:20:06.951Z,7.13
2018-12-26T22:22:36.436Z,5.80
2018-12-26T22:25:06.006Z,7.07
2018-12-26T22:27:35.603Z,7.83
2018-12-26T22:30:05.730Z,6.57
2018-12-26T22:32:35.164Z,8.43
2018-12-26T22:35:04.738Z,6.90
2018-12-26T22:37:34.385Z,8.00
2018-12-26T22:40:03.850Z,6.50
2018-12-26T22:42:33.308Z,5.73
2018-12-26T22:45:02.808Z,6.00
2018-12-26T22:47:32.184Z,6.13
2018-12-26T22:50:01.682Z,5.70
2018-12-26T22:52:31.226Z,6.93
2018-12-26T22:55:00.813Z,6.00
2018-12-26T22:57:30.285Z,6.67
2018-12-26T22:59:59.855Z,5.80
2018-12-26T23:02:29.265Z,6.70
2018-12-26T23:04:58.650Z,5.47
2018-12-26T23:07:28.128Z,5.83
2018-12-26T23:09:57.584Z,5.40
2018-12-26T23:12:26.991Z,5.43
2018-12-26T23:14:56.457Z,6.43
2018-12-26T23:17:25.963Z,5.80
2018-12-26T23:19:55.464Z,5.50
2018-12-26T23:22:24.939Z,6.00
2018-12-26T23:24:54.384Z,5.60
2018-12-26T23:27:23.851Z,6.83
2018-12-26T23:29:53.331Z,5.80
2018-12-26T23:32:22.899Z,5.20
2018-12-26T23:34:52.450Z,6.00
2018-12-26T23:37:21.879Z,5.40
2018-12-26T23:39:51.371Z,5.70
2018-12-26T23:42:20.751Z,5.43
2018-12-26T23:44:50.153Z,5.83
2018-12-26T23:47:19.709Z,5.60
2018-12-26T23:49:49.190Z,5.93
2018-12-26T23:52:18.648Z,6.40
2018-12-26T23:54:48.069Z,5.07
2018-12-26T23:57:17.668Z,6.13
2018-12-26T23:59:47.048Z,6.43
